sensor_id;sensor_type;location;lat;lon;timestamp;temperature;humidity
24252;DHT22;12380;51.118;4.176;2023-01-29T00:01:54;-0.20;99.90
24252;DHT22;12380;51.118;4.176;2023-01-29T00:04:20;-0.30;99.90
24252;DHT22;12380;51.118;4.176;2023-01-29T00:06:46;-0.30;99.90
24252;DHT22;12380;51.118;4.176;2023-01-29T00:09:11;-0.20;99.90
24252;DHT22;12380;51.118;4.176;2023-01-29T00:11:38;-0.30;99.90
24252;DHT22;12380;51.118;4.176;2023-01-29T00:14:04;-0.40;99.90
24252;DHT22;12380;51.118;4.176;2023-01-29T00:16:32;-0.40;99.90
24252;DHT22;12380;51.118;4.176;2023-01-29T00:18:59;-0.40;99.90
24252;DHT22;12380;51.118;4.176;2023-01-29T00:21:25;-0.30;99.90
24252;DHT22;12380;51.118;4.176;2023-01-29T00:23:53;-0.20;99.90
24252;DHT22;12380;51.118;4.176;2023-01-29T00:26:19;-0.20;99.90
24252;DHT22;12380;51.118;4.176;2023-01-29T00:28:45;-0.20;99.90
24252;DHT22;12380;51.118;4.176;2023-01-29T00:31:11;-0.30;99.90
24252;DHT22;12380;51.118;4.176;2023-01-29T00:33:37;-0.40;99.90
24252;DHT22;12380;51.118;4.176;2023-01-29T00:36:03;-0.40;99.90
24252;DHT22;12380;51.118;4.176;2023-01-29T00:38:29;-0.40;99.90
24252;DHT22;12380;51.118;4.176;2023-01-29T00:40:55;-0.40;99.90
24252;DHT22;12380;51.118;4.176;2023-01-29T00:43:39;-0.30;99.90
24252;DHT22;12380;51.118;4.176;2023-01-29T00:46:24;-0.40;99.90
24252;DHT22;12380;51.118;4.176;2023-01-29T00:48:49;-0.50;99.90
24252;DHT22;12380;51.118;4.176;2023-01-29T00:51:15;-0.70;99.90
24252;DHT22;12380;51.118;4.176;2023-01-29T00:53:43;-0.70;99.90
24252;DHT22;12380;51.118;4.176;2023-01-29T00:56:08;-0.70;99.90
24252;DHT22;12380;51.118;4.176;2023-01-29T00:58:34;-0.60;99.90
24252;DHT22;12380;51.118;4.176;2023-01-29T01:01:02;-0.60;99.90
24252;DHT22;12380;51.118;4.176;2023-01-29T01:03:28;-0.70;99.90
24252;DHT22;12380;51.118;4.176;2023-01-29T01:06:06;-0.70;99.90
24252;DHT22;12380;51.118;4.176;2023-01-29T01:08:32;-0.70;99.90
24252;DHT22;12380;51.118;4.176;2023-01-29T01:11:17;-0.70;99.90
24252;DHT22;12380;51.118;4.176;2023-01-29T01:13:42;-0.70;99.90
24252;DHT22;12380;51.118;4.176;2023-01-29T01:16:12;-0.70;99.90
24252;DHT22;12380;51.118;4.176;2023-01-29T01:18:38;-0.70;99.90
24252;DHT22;12380;51.118;4.176;2023-01-29T01:21:03;-0.60;99.90
24252;DHT22;12380;51.118;4.176;2023-01-29T01:23:32;-0.60;99.90
24252;DHT22;12380;51.118;4.176;2023-01-29T01:25:57;-0.60;99.90
24252;DHT22;12380;51.118;4.176;2023-01-29T01:28:23;-0.60;99.90
24252;DHT22;12380;51.118;4.176;2023-01-29T01:30:49;-0.70;99.90
24252;DHT22;12380;51.118;4.176;2023-01-29T01:33:15;-0.60;99.90
24252;DHT22;12380;51.118;4.176;2023-01-29T01:35:41;-0.70;99.90
24252;DHT22;12380;51.118;4.176;2023-01-29T01:38:07;-0.50;99.90
24252;DHT22;12380;51.118;4.176;2023-01-29T01:40:33;-0.50;99.90
24252;DHT22;12380;51.118;4.176;2023-01-29T01:43:01;-0.40;99.90
24252;DHT22;12380;51.118;4.176;2023-01-29T01:45:28;-0.40;99.90
24252;DHT22;12380;51.118;4.176;2023-01-29T01:50:37;-0.50;99.90
24252;DHT22;12380;51.118;4.176;2023-01-29T01:53:06;-0.50;99.90
24252;DHT22;12380;51.118;4.176;2023-01-29T01:55:33;-0.30;99.90
24252;DHT22;12380;51.118;4.176;2023-01-29T01:58:05;-0.40;99.90
24252;DHT22;12380;51.118;4.176;2023-01-29T02:00:33;-0.30;99.90
24252;DHT22;12380;51.118;4.176;2023-01-29T02:02:59;-0.20;99.90
24252;DHT22;12380;51.118;4.176;2023-01-29T02:05:43;-0.10;99.90
24252;DHT22;12380;51.118;4.176;2023-01-29T02:08:33;-0.10;99.90
24252;DHT22;12380;51.118;4.176;2023-01-29T02:11:18;-0.10;99.90
24252;DHT22;12380;51.118;4.176;2023-01-29T02:13:44;0.00;99.90
24252;DHT22;12380;51.118;4.176;2023-01-29T02:16:11;0.00;99.90
24252;DHT22;12380;51.118;4.176;2023-01-29T02:18:37;0.10;99.90
24252;DHT22;12380;51.118;4.176;2023-01-29T02:21:06;0.10;99.90
24252;DHT22;12380;51.118;4.176;2023-01-29T02:26:14;0.00;99.90
24252;DHT22;12380;51.118;4.176;2023-01-29T02:41:34;0.30;99.90
24252;DHT22;12380;51.118;4.176;2023-01-29T02:51:35;0.40;99.90
24252;DHT22;12380;51.118;4.176;2023-01-29T02:54:06;0.40;99.90
24252;DHT22;12380;51.118;4.176;2023-01-29T02:56:40;0.50;99.90
24252;DHT22;12380;51.118;4.176;2023-01-29T02:59:10;0.50;99.90
24252;DHT22;12380;51.118;4.176;2023-01-29T03:01:41;0.50;99.90
24252;DHT22;12380;51.118;4.176;2023-01-29T03:04:13;0.40;99.90
24252;DHT22;12380;51.118;4.176;2023-01-29T03:06:42;0.40;99.90
24252;DHT22;12380;51.118;4.176;2023-01-29T03:11:51;0.40;99.90
24252;DHT22;12380;51.118;4.176;2023-01-29T03:14:21;0.50;99.90
24252;DHT22;12380;51.118;4.176;2023-01-29T03:16:50;0.60;99.90
24252;DHT22;12380;51.118;4.176;2023-01-29T03:21:53;0.70;99.90
24252;DHT22;12380;51.118;4.176;2023-01-29T03:27:21;0.80;99.90
24252;DHT22;12380;51.118;4.176;2023-01-29T03:30:06;0.60;99.90
24252;DHT22;12380;51.118;4.176;2023-01-29T03:32:52;0.50;99.90
24252;DHT22;12380;51.118;4.176;2023-01-29T03:35:24;0.50;99.90
24252;DHT22;12380;51.118;4.176;2023-01-29T03:38:04;0.30;99.90
24252;DHT22;12380;51.118;4.176;2023-01-29T03:40:34;0.20;99.90
24252;DHT22;12380;51.118;4.176;2023-01-29T03:43:08;0.20;99.90
24252;DHT22;12380;51.118;4.176;2023-01-29T03:56:06;0.10;99.90
24252;DHT22;12380;51.118;4.176;2023-01-29T04:01:38;0.20;99.90
24252;DHT22;12380;51.118;4.176;2023-01-29T04:06:42;0.30;99.90
24252;DHT22;12380;51.118;4.176;2023-01-29T04:09:13;0.50;99.90
24252;DHT22;12380;51.118;4.176;2023-01-29T04:11:40;0.60;99.90
24252;DHT22;12380;51.118;4.176;2023-01-29T04:14:07;0.50;99.90
24252;DHT22;12380;51.118;4.176;2023-01-29T04:16:35;0.40;99.90
24252;DHT22;12380;51.118;4.176;2023-01-29T04:19:02;0.30;99.90
24252;DHT22;12380;51.118;4.176;2023-01-29T04:21:29;0.30;99.90
24252;DHT22;12380;51.118;4.176;2023-01-29T04:23:56;0.30;99.90
24252;DHT22;12380;51.118;4.176;2023-01-29T04:31:59;0.50;99.90
24252;DHT22;12380;51.118;4.176;2023-01-29T04:34:22;0.40;99.90
24252;DHT22;12380;51.118;4.176;2023-01-29T04:57:49;0.80;99.90
24252;DHT22;12380;51.118;4.176;2023-01-29T05:00:17;0.70;99.90
24252;DHT22;12380;51.118;4.176;2023-01-29T05:02:44;0.60;99.90
24252;DHT22;12380;51.118;4.176;2023-01-29T05:05:11;0.70;99.90
24252;DHT22;12380;51.118;4.176;2023-01-29T05:07:37;0.80;99.90
24252;DHT22;12380;51.118;4.176;2023-01-29T05:10:05;0.80;99.90
24252;DHT22;12380;51.118;4.176;2023-01-29T05:12:31;0.70;99.90
24252;DHT22;12380;51.118;4.176;2023-01-29T05:15:01;0.50;99.90
24252;DHT22;12380;51.118;4.176;2023-01-29T05:17:26;0.60;99.90
24252;DHT22;12380;51.118;4.176;2023-01-29T05:19:53;0.60;99.90
24252;DHT22;12380;51.118;4.176;2023-01-29T05:22:20;0.60;99.90
24252;DHT22;12380;51.118;4.176;2023-01-29T05:24:47;0.60;99.90
24252;DHT22;12380;51.118;4.176;2023-01-29T05:27:34;0.80;99.90
24252;DHT22;12380;51.118;4.176;2023-01-29T05:30:17;0.80;99.90
24252;DHT22;12380;51.118;4.176;2023-01-29T05:32:45;0.80;99.90
24252;DHT22;12380;51.118;4.176;2023-01-29T05:35:12;0.80;99.90
24252;DHT22;12380;51.118;4.176;2023-01-29T05:37:38;0.80;99.90
24252;DHT22;12380;51.118;4.176;2023-01-29T05:40:04;0.80;99.90
24252;DHT22;12380;51.118;4.176;2023-01-29T05:42:33;0.80;99.90
24252;DHT22;12380;51.118;4.176;2023-01-29T05:44:58;0.90;99.90
24252;DHT22;12380;51.118;4.176;2023-01-29T05:47:24;1.00;99.90
24252;DHT22;12380;51.118;4.176;2023-01-29T05:49:50;1.00;99.90
24252;DHT22;12380;51.118;4.176;2023-01-29T05:52:15;1.00;99.90
24252;DHT22;12380;51.118;4.176;2023-01-29T05:54:42;1.10;99.90
24252;DHT22;12380;51.118;4.176;2023-01-29T05:57:08;0.90;99.90
24252;DHT22;12380;51.118;4.176;2023-01-29T05:59:34;0.90;99.90
24252;DHT22;12380;51.118;4.176;2023-01-29T06:02:00;0.90;99.90
24252;DHT22;12380;51.118;4.176;2023-01-29T06:04:25;0.80;99.90
24252;DHT22;12380;51.118;4.176;2023-01-29T06:06:54;0.70;99.90
24252;DHT22;12380;51.118;4.176;2023-01-29T06:09:19;0.80;99.90
24252;DHT22;12380;51.118;4.176;2023-01-29T06:11:45;0.90;99.90
24252;DHT22;12380;51.118;4.176;2023-01-29T06:14:13;0.80;99.90
24252;DHT22;12380;51.118;4.176;2023-01-29T06:16:39;0.60;99.90
24252;DHT22;12380;51.118;4.176;2023-01-29T06:19:05;0.70;99.90
24252;DHT22;12380;51.118;4.176;2023-01-29T06:21:31;0.70;99.90
24252;DHT22;12380;51.118;4.176;2023-01-29T06:23:59;0.70;99.90
24252;DHT22;12380;51.118;4.176;2023-01-29T06:26:26;0.70;99.90
24252;DHT22;12380;51.118;4.176;2023-01-29T06:28:54;0.80;99.90
24252;DHT22;12380;51.118;4.176;2023-01-29T06:31:20;0.90;99.90
24252;DHT22;12380;51.118;4.176;2023-01-29T06:33:46;1.00;99.90
24252;DHT22;12380;51.118;4.176;2023-01-29T06:36:14;0.90;99.90
24252;DHT22;12380;51.118;4.176;2023-01-29T06:38:39;0.90;99.90
24252;DHT22;12380;51.118;4.176;2023-01-29T06:41:09;0.70;99.90
24252;DHT22;12380;51.118;4.176;2023-01-29T06:43:36;0.70;99.90
24252;DHT22;12380;51.118;4.176;2023-01-29T06:46:02;0.70;99.90
24252;DHT22;12380;51.118;4.176;2023-01-29T06:48:27;0.60;99.90
24252;DHT22;12380;51.118;4.176;2023-01-29T06:50:53;0.70;99.90
24252;DHT22;12380;51.118;4.176;2023-01-29T06:53:19;0.70;99.90
24252;DHT22;12380;51.118;4.176;2023-01-29T06:55:51;0.70;99.90
24252;DHT22;12380;51.118;4.176;2023-01-29T06:58:17;0.80;99.90
24252;DHT22;12380;51.118;4.176;2023-01-29T07:00:43;0.90;99.90
24252;DHT22;12380;51.118;4.176;2023-01-29T07:03:08;0.90;99.90
24252;DHT22;12380;51.118;4.176;2023-01-29T07:05:35;0.90;99.90
24252;DHT22;12380;51.118;4.176;2023-01-29T07:08:00;0.80;99.90
24252;DHT22;12380;51.118;4.176;2023-01-29T07:10:26;0.80;99.90
24252;DHT22;12380;51.118;4.176;2023-01-29T07:12:51;0.80;99.90
24252;DHT22;12380;51.118;4.176;2023-01-29T07:15:17;0.90;99.90
24252;DHT22;12380;51.118;4.176;2023-01-29T07:17:57;1.00;99.90
24252;DHT22;12380;51.118;4.176;2023-01-29T07:20:36;1.10;99.90
24252;DHT22;12380;51.118;4.176;2023-01-29T07:23:02;1.10;99.90
24252;DHT22;12380;51.118;4.176;2023-01-29T07:25:27;1.20;99.90
24252;DHT22;12380;51.118;4.176;2023-01-29T07:27:54;1.00;99.90
24252;DHT22;12380;51.118;4.176;2023-01-29T07:30:20;1.10;99.90
24252;DHT22;12380;51.118;4.176;2023-01-29T07:32:46;1.30;99.90
24252;DHT22;12380;51.118;4.176;2023-01-29T07:35:12;1.10;99.90
24252;DHT22;12380;51.118;4.176;2023-01-29T07:37:37;1.20;99.90
24252;DHT22;12380;51.118;4.176;2023-01-29T07:40:03;1.10;99.90
24252;DHT22;12380;51.118;4.176;2023-01-29T07:42:30;1.10;99.90
24252;DHT22;12380;51.118;4.176;2023-01-29T07:44:58;1.00;99.90
24252;DHT22;12380;51.118;4.176;2023-01-29T07:47:23;1.20;99.90
24252;DHT22;12380;51.118;4.176;2023-01-29T07:49:49;1.10;99.90
24252;DHT22;12380;51.118;4.176;2023-01-29T07:52:14;1.10;99.90
24252;DHT22;12380;51.118;4.176;2023-01-29T07:54:41;1.30;99.90
24252;DHT22;12380;51.118;4.176;2023-01-29T07:57:07;1.30;99.90
24252;DHT22;12380;51.118;4.176;2023-01-29T07:59:32;1.30;99.90
24252;DHT22;12380;51.118;4.176;2023-01-29T08:01:58;1.30;99.90
24252;DHT22;12380;51.118;4.176;2023-01-29T08:04:26;1.20;99.90
24252;DHT22;12380;51.118;4.176;2023-01-29T08:06:52;1.20;99.90
24252;DHT22;12380;51.118;4.176;2023-01-29T08:09:17;1.20;99.90
24252;DHT22;12380;51.118;4.176;2023-01-29T08:11:43;1.30;99.90
24252;DHT22;12380;51.118;4.176;2023-01-29T08:14:09;1.30;99.90
24252;DHT22;12380;51.118;4.176;2023-01-29T08:16:35;1.30;99.90
24252;DHT22;12380;51.118;4.176;2023-01-29T08:19:00;1.30;99.90
24252;DHT22;12380;51.118;4.176;2023-01-29T08:21:26;1.30;99.90
24252;DHT22;12380;51.118;4.176;2023-01-29T08:23:52;1.30;99.90
24252;DHT22;12380;51.118;4.176;2023-01-29T08:26:18;1.30;99.90
24252;DHT22;12380;51.118;4.176;2023-01-29T08:28:43;1.50;99.90
24252;DHT22;12380;51.118;4.176;2023-01-29T08:31:13;1.40;99.90
24252;DHT22;12380;51.118;4.176;2023-01-29T08:33:39;1.50;99.90
24252;DHT22;12380;51.118;4.176;2023-01-29T08:36:06;1.50;99.90
24252;DHT22;12380;51.118;4.176;2023-01-29T08:38:31;1.60;99.90
24252;DHT22;12380;51.118;4.176;2023-01-29T08:40:57;1.60;99.90
24252;DHT22;12380;51.118;4.176;2023-01-29T08:43:22;1.70;99.90
24252;DHT22;12380;51.118;4.176;2023-01-29T08:45:48;1.60;99.90
24252;DHT22;12380;51.118;4.176;2023-01-29T08:48:14;1.60;99.90
24252;DHT22;12380;51.118;4.176;2023-01-29T08:50:39;1.50;99.90
24252;DHT22;12380;51.118;4.176;2023-01-29T08:53:05;1.60;99.90
24252;DHT22;12380;51.118;4.176;2023-01-29T08:55:32;1.60;99.90
24252;DHT22;12380;51.118;4.176;2023-01-29T08:57:59;1.60;99.90
24252;DHT22;12380;51.118;4.176;2023-01-29T09:00:24;1.60;99.90
24252;DHT22;12380;51.118;4.176;2023-01-29T09:02:50;1.70;99.90
24252;DHT22;12380;51.118;4.176;2023-01-29T09:05:16;1.70;99.90
24252;DHT22;12380;51.118;4.176;2023-01-29T09:07:41;1.80;99.90
24252;DHT22;12380;51.118;4.176;2023-01-29T09:10:08;1.80;99.90
24252;DHT22;12380;51.118;4.176;2023-01-29T09:12:33;2.00;99.90
24252;DHT22;12380;51.118;4.176;2023-01-29T09:14:59;1.90;99.90
24252;DHT22;12380;51.118;4.176;2023-01-29T09:17:24;1.90;99.90
24252;DHT22;12380;51.118;4.176;2023-01-29T09:19:51;1.80;99.90
24252;DHT22;12380;51.118;4.176;2023-01-29T09:22:17;1.80;99.90
24252;DHT22;12380;51.118;4.176;2023-01-29T09:24:43;1.70;99.90
24252;DHT22;12380;51.118;4.176;2023-01-29T09:27:09;1.70;99.90
24252;DHT22;12380;51.118;4.176;2023-01-29T09:29:37;1.80;99.90
24252;DHT22;12380;51.118;4.176;2023-01-29T09:32:03;1.80;99.90
24252;DHT22;12380;51.118;4.176;2023-01-29T09:34:29;1.80;99.90
24252;DHT22;12380;51.118;4.176;2023-01-29T09:36:55;1.70;99.90
24252;DHT22;12380;51.118;4.176;2023-01-29T09:39:21;1.80;99.90
24252;DHT22;12380;51.118;4.176;2023-01-29T09:42:30;1.90;99.90
24252;DHT22;12380;51.118;4.176;2023-01-29T09:47:05;2.00;99.90
24252;DHT22;12380;51.118;4.176;2023-01-29T09:49:35;2.00;99.90
24252;DHT22;12380;51.118;4.176;2023-01-29T09:52:09;2.00;99.90
24252;DHT22;12380;51.118;4.176;2023-01-29T09:57:17;2.10;99.90
24252;DHT22;12380;51.118;4.176;2023-01-29T09:59:45;2.10;99.90
24252;DHT22;12380;51.118;4.176;2023-01-29T10:05:02;2.20;99.90
24252;DHT22;12380;51.118;4.176;2023-01-29T10:10:34;2.20;99.90
24252;DHT22;12380;51.118;4.176;2023-01-29T10:15:41;2.30;99.90
24252;DHT22;12380;51.118;4.176;2023-01-29T10:20:50;2.50;99.90
24252;DHT22;12380;51.118;4.176;2023-01-29T10:23:37;2.40;99.90
24252;DHT22;12380;51.118;4.176;2023-01-29T10:26:09;2.40;99.90
24252;DHT22;12380;51.118;4.176;2023-01-29T10:28:40;2.30;99.90
24252;DHT22;12380;51.118;4.176;2023-01-29T10:31:12;2.40;99.90
24252;DHT22;12380;51.118;4.176;2023-01-29T10:33:47;2.50;99.90
24252;DHT22;12380;51.118;4.176;2023-01-29T10:36:19;2.50;99.90
24252;DHT22;12380;51.118;4.176;2023-01-29T10:38:49;2.60;99.90
24252;DHT22;12380;51.118;4.176;2023-01-29T10:59:38;2.90;99.90
24252;DHT22;12380;51.118;4.176;2023-01-29T11:02:13;2.90;99.90
24252;DHT22;12380;51.118;4.176;2023-01-29T11:04:40;3.00;99.90
24252;DHT22;12380;51.118;4.176;2023-01-29T11:07:06;3.20;99.90
24252;DHT22;12380;51.118;4.176;2023-01-29T11:09:41;3.30;99.90
24252;DHT22;12380;51.118;4.176;2023-01-29T11:12:12;3.30;99.90
24252;DHT22;12380;51.118;4.176;2023-01-29T11:17:04;3.30;99.90
24252;DHT22;12380;51.118;4.176;2023-01-29T11:19:37;3.30;99.90
24252;DHT22;12380;51.118;4.176;2023-01-29T11:22:03;3.30;99.90
24252;DHT22;12380;51.118;4.176;2023-01-29T11:24:28;3.40;99.90
24252;DHT22;12380;51.118;4.176;2023-01-29T11:26:55;3.50;99.90
24252;DHT22;12380;51.118;4.176;2023-01-29T11:29:28;3.60;99.90
24252;DHT22;12380;51.118;4.176;2023-01-29T11:31:56;4.00;99.90
24252;DHT22;12380;51.118;4.176;2023-01-29T11:34:23;4.00;99.90
24252;DHT22;12380;51.118;4.176;2023-01-29T11:36:58;4.10;99.90
24252;DHT22;12380;51.118;4.176;2023-01-29T11:39:24;4.10;99.90
24252;DHT22;12380;51.118;4.176;2023-01-29T11:41:52;4.30;99.90
24252;DHT22;12380;51.118;4.176;2023-01-29T11:44:29;4.30;87.00
24252;DHT22;12380;51.118;4.176;2023-01-29T11:46:56;4.30;50.20
24252;DHT22;12380;51.118;4.176;2023-01-29T11:49:32;4.50;40.80
24252;DHT22;12380;51.118;4.176;2023-01-29T11:52:00;4.50;1.00
24252;DHT22;12380;51.118;4.176;2023-01-29T11:54:35;4.60;17.10
24252;DHT22;12380;51.118;4.176;2023-01-29T11:57:03;4.60;1.00
24252;DHT22;12380;51.118;4.176;2023-01-29T11:59:40;4.80;1.00
24252;DHT22;12380;51.118;4.176;2023-01-29T12:04:43;4.80;1.00
24252;DHT22;12380;51.118;4.176;2023-01-29T12:07:14;4.60;99.90
24252;DHT22;12380;51.118;4.176;2023-01-29T12:09:44;4.60;1.00
24252;DHT22;12380;51.118;4.176;2023-01-29T12:12:16;4.50;1.00
24252;DHT22;12380;51.118;4.176;2023-01-29T12:14:45;4.70;1.00
24252;DHT22;12380;51.118;4.176;2023-01-29T12:17:16;4.70;1.00
24252;DHT22;12380;51.118;4.176;2023-01-29T12:19:48;4.70;99.90
24252;DHT22;12380;51.118;4.176;2023-01-29T12:32:42;4.50;1.00
24252;DHT22;12380;51.118;4.176;2023-01-29T12:37:50;4.70;1.00
24252;DHT22;12380;51.118;4.176;2023-01-29T12:40:19;4.80;1.00
24252;DHT22;12380;51.118;4.176;2023-01-29T12:42:48;4.60;1.00
24252;DHT22;12380;51.118;4.176;2023-01-29T12:45:19;4.50;1.00
24252;DHT22;12380;51.118;4.176;2023-01-29T12:47:47;4.60;1.00
24252;DHT22;12380;51.118;4.176;2023-01-29T12:50:18;4.50;55.50
24252;DHT22;12380;51.118;4.176;2023-01-29T12:52:51;4.40;99.90
24252;DHT22;12380;51.118;4.176;2023-01-29T12:55:22;4.40;99.90
24252;DHT22;12380;51.118;4.176;2023-01-29T12:57:53;4.40;1.00
24252;DHT22;12380;51.118;4.176;2023-01-29T13:00:24;4.30;1.00
24252;DHT22;12380;51.118;4.176;2023-01-29T13:02:56;4.20;1.00
24252;DHT22;12380;51.118;4.176;2023-01-29T13:05:45;4.30;1.00
24252;DHT22;12380;51.118;4.176;2023-01-29T13:10:42;4.40;6.90
24252;DHT22;12380;51.118;4.176;2023-01-29T13:13:19;4.40;1.00
24252;DHT22;12380;51.118;4.176;2023-01-29T13:15:46;4.30;56.30
24252;DHT22;12380;51.118;4.176;2023-01-29T13:18:38;4.40;99.90
24252;DHT22;12380;51.118;4.176;2023-01-29T13:21:00;4.40;99.90
24252;DHT22;12380;51.118;4.176;2023-01-29T13:23:31;4.30;99.90
24252;DHT22;12380;51.118;4.176;2023-01-29T13:25:58;4.40;99.90
24252;DHT22;12380;51.118;4.176;2023-01-29T13:28:29;4.20;99.90
24252;DHT22;12380;51.118;4.176;2023-01-29T13:31:12;4.20;99.90
24252;DHT22;12380;51.118;4.176;2023-01-29T13:33:39;4.20;99.90
24252;DHT22;12380;51.118;4.176;2023-01-29T13:36:09;4.30;99.90
24252;DHT22;12380;51.118;4.176;2023-01-29T13:38:36;4.20;1.00
24252;DHT22;12380;51.118;4.176;2023-01-29T13:41:03;4.20;99.90
24252;DHT22;12380;51.118;4.176;2023-01-29T13:43:34;4.30;99.90
24252;DHT22;12380;51.118;4.176;2023-01-29T13:46:00;4.50;99.90
24252;DHT22;12380;51.118;4.176;2023-01-29T13:48:31;4.40;99.90
24252;DHT22;12380;51.118;4.176;2023-01-29T13:51:01;4.50;1.00
24252;DHT22;12380;51.118;4.176;2023-01-29T13:53:29;4.40;99.90
24252;DHT22;12380;51.118;4.176;2023-01-29T13:55:55;4.30;99.90
24252;DHT22;12380;51.118;4.176;2023-01-29T14:01:09;4.30;1.00
24252;DHT22;12380;51.118;4.176;2023-01-29T14:03:42;4.50;1.00
24252;DHT22;12380;51.118;4.176;2023-01-29T14:06:07;4.60;1.00
24252;DHT22;12380;51.118;4.176;2023-01-29T14:13:41;4.40;1.00
24252;DHT22;12380;51.118;4.176;2023-01-29T14:26:17;4.30;9.40
24252;DHT22;12380;51.118;4.176;2023-01-29T14:28:45;4.30;1.00
24252;DHT22;12380;51.118;4.176;2023-01-29T14:31:26;4.40;99.90
24252;DHT22;12380;51.118;4.176;2023-01-29T14:33:53;4.30;99.90
24252;DHT22;12380;51.118;4.176;2023-01-29T14:36:24;4.30;51.30
24252;DHT22;12380;51.118;4.176;2023-01-29T14:38:50;4.30;99.90
24252;DHT22;12380;51.118;4.176;2023-01-29T14:43:43;4.20;1.00
24252;DHT22;12380;51.118;4.176;2023-01-29T14:48:54;4.20;1.00
24252;DHT22;12380;51.118;4.176;2023-01-29T14:51:20;4.20;99.90
24252;DHT22;12380;51.118;4.176;2023-01-29T14:53:53;4.20;99.90
24252;DHT22;12380;51.118;4.176;2023-01-29T14:56:31;4.20;99.90
24252;DHT22;12380;51.118;4.176;2023-01-29T15:01:38;4.20;1.00
24252;DHT22;12380;51.118;4.176;2023-01-29T15:06:43;4.20;1.00
24252;DHT22;12380;51.118;4.176;2023-01-29T15:09:17;4.30;1.00
24252;DHT22;12380;51.118;4.176;2023-01-29T15:11:54;4.40;1.00
24252;DHT22;12380;51.118;4.176;2023-01-29T15:14:42;4.40;1.00
24252;DHT22;12380;51.118;4.176;2023-01-29T15:17:18;4.40;1.00
24252;DHT22;12380;51.118;4.176;2023-01-29T15:19:46;4.40;1.00
24252;DHT22;12380;51.118;4.176;2023-01-29T15:24:38;4.50;1.00
24252;DHT22;12380;51.118;4.176;2023-01-29T15:27:05;4.50;1.00
24252;DHT22;12380;51.118;4.176;2023-01-29T15:29:31;4.40;1.00
24252;DHT22;12380;51.118;4.176;2023-01-29T15:31:57;4.40;1.00
24252;DHT22;12380;51.118;4.176;2023-01-29T15:34:23;4.50;1.00
24252;DHT22;12380;51.118;4.176;2023-01-29T15:36:49;4.40;1.00
24252;DHT22;12380;51.118;4.176;2023-01-29T15:39:22;4.40;1.00
24252;DHT22;12380;51.118;4.176;2023-01-29T15:42:03;4.30;41.60
24252;DHT22;12380;51.118;4.176;2023-01-29T15:44:28;4.30;58.70
24252;DHT22;12380;51.118;4.176;2023-01-29T15:46:55;4.30;47.90
24252;DHT22;12380;51.118;4.176;2023-01-29T15:49:35;4.40;67.00
24252;DHT22;12380;51.118;4.176;2023-01-29T15:52:03;4.30;50.50
24252;DHT22;12380;51.118;4.176;2023-01-29T15:54:30;4.20;51.90
24252;DHT22;12380;51.118;4.176;2023-01-29T15:56:57;4.30;81.20
24252;DHT22;12380;51.118;4.176;2023-01-29T15:59:24;4.20;97.30
24252;DHT22;12380;51.118;4.176;2023-01-29T16:01:51;4.20;80.60
24252;DHT22;12380;51.118;4.176;2023-01-29T16:04:22;4.10;99.90
24252;DHT22;12380;51.118;4.176;2023-01-29T16:06:49;4.10;99.90
24252;DHT22;12380;51.118;4.176;2023-01-29T16:09:16;4.00;99.90
24252;DHT22;12380;51.118;4.176;2023-01-29T16:11:44;4.00;99.90
24252;DHT22;12380;51.118;4.176;2023-01-29T16:14:14;4.00;99.90
24252;DHT22;12380;51.118;4.176;2023-01-29T16:16:41;4.00;99.90
24252;DHT22;12380;51.118;4.176;2023-01-29T16:19:14;4.00;99.90
24252;DHT22;12380;51.118;4.176;2023-01-29T16:21:44;4.00;99.90
24252;DHT22;12380;51.118;4.176;2023-01-29T16:24:12;3.90;99.90
24252;DHT22;12380;51.118;4.176;2023-01-29T16:26:43;3.90;99.90
24252;DHT22;12380;51.118;4.176;2023-01-29T16:29:10;3.90;99.90
24252;DHT22;12380;51.118;4.176;2023-01-29T16:31:36;3.90;99.90
24252;DHT22;12380;51.118;4.176;2023-01-29T16:34:06;3.90;99.90
24252;DHT22;12380;51.118;4.176;2023-01-29T16:36:33;3.90;99.90
24252;DHT22;12380;51.118;4.176;2023-01-29T16:38:59;3.90;99.90
24252;DHT22;12380;51.118;4.176;2023-01-29T16:41:29;3.80;99.90
24252;DHT22;12380;51.118;4.176;2023-01-29T16:43:57;3.80;99.90
24252;DHT22;12380;51.118;4.176;2023-01-29T16:46:24;3.80;99.90
24252;DHT22;12380;51.118;4.176;2023-01-29T16:48:51;3.80;99.90
24252;DHT22;12380;51.118;4.176;2023-01-29T16:51:21;3.70;99.90
24252;DHT22;12380;51.118;4.176;2023-01-29T16:56:20;3.80;99.90
24252;DHT22;12380;51.118;4.176;2023-01-29T16:58:48;3.90;99.90
24252;DHT22;12380;51.118;4.176;2023-01-29T17:01:13;3.90;99.90
24252;DHT22;12380;51.118;4.176;2023-01-29T17:03:39;3.80;99.90
24252;DHT22;12380;51.118;4.176;2023-01-29T17:06:12;3.90;99.90
24252;DHT22;12380;51.118;4.176;2023-01-29T17:08:45;3.90;99.90
24252;DHT22;12380;51.118;4.176;2023-01-29T17:11:11;3.90;99.90
24252;DHT22;12380;51.118;4.176;2023-01-29T17:13:39;3.90;99.90
24252;DHT22;12380;51.118;4.176;2023-01-29T17:16:46;3.80;99.90
24252;DHT22;12380;51.118;4.176;2023-01-29T17:18:59;3.90;99.90
24252;DHT22;12380;51.118;4.176;2023-01-29T17:21:25;3.80;99.90
24252;DHT22;12380;51.118;4.176;2023-01-29T17:23:52;3.90;99.90
24252;DHT22;12380;51.118;4.176;2023-01-29T17:26:19;3.90;99.90
24252;DHT22;12380;51.118;4.176;2023-01-29T17:28:47;3.80;99.90
24252;DHT22;12380;51.118;4.176;2023-01-29T17:31:13;3.90;99.90
24252;DHT22;12380;51.118;4.176;2023-01-29T17:33:40;3.90;99.90
24252;DHT22;12380;51.118;4.176;2023-01-29T17:36:13;3.80;99.90
24252;DHT22;12380;51.118;4.176;2023-01-29T17:38:39;3.80;99.90
24252;DHT22;12380;51.118;4.176;2023-01-29T17:41:10;3.80;99.90
24252;DHT22;12380;51.118;4.176;2023-01-29T17:43:36;3.90;99.90
24252;DHT22;12380;51.118;4.176;2023-01-29T17:46:07;3.80;99.90
24252;DHT22;12380;51.118;4.176;2023-01-29T17:48:33;3.80;99.90
24252;DHT22;12380;51.118;4.176;2023-01-29T17:51:01;3.70;99.90
24252;DHT22;12380;51.118;4.176;2023-01-29T17:53:27;3.60;99.90
24252;DHT22;12380;51.118;4.176;2023-01-29T17:55:53;3.60;99.90
24252;DHT22;12380;51.118;4.176;2023-01-29T17:58:20;3.70;99.90
24252;DHT22;12380;51.118;4.176;2023-01-29T18:00:48;3.70;99.90
24252;DHT22;12380;51.118;4.176;2023-01-29T18:03:15;3.60;99.90
24252;DHT22;12380;51.118;4.176;2023-01-29T18:05:43;3.70;99.90
24252;DHT22;12380;51.118;4.176;2023-01-29T18:08:20;3.80;99.90
24252;DHT22;12380;51.118;4.176;2023-01-29T18:10:48;3.70;99.90
24252;DHT22;12380;51.118;4.176;2023-01-29T18:13:14;3.80;99.90
24252;DHT22;12380;51.118;4.176;2023-01-29T18:15:40;3.80;99.90
24252;DHT22;12380;51.118;4.176;2023-01-29T18:18:08;3.90;99.90
24252;DHT22;12380;51.118;4.176;2023-01-29T18:20:36;3.90;99.90
24252;DHT22;12380;51.118;4.176;2023-01-29T18:23:05;3.70;99.90
24252;DHT22;12380;51.118;4.176;2023-01-29T18:25:33;3.70;99.90
24252;DHT22;12380;51.118;4.176;2023-01-29T18:27:59;3.70;99.90
24252;DHT22;12380;51.118;4.176;2023-01-29T18:30:25;3.80;99.90
24252;DHT22;12380;51.118;4.176;2023-01-29T18:32:52;3.90;99.90
24252;DHT22;12380;51.118;4.176;2023-01-29T18:35:18;3.80;99.90
24252;DHT22;12380;51.118;4.176;2023-01-29T18:37:44;3.70;99.90
24252;DHT22;12380;51.118;4.176;2023-01-29T18:40:10;3.90;99.90